createdAt,value
2024-01-16T00:00:25.570Z,94105.00
2024-01-16T00:01:25.672Z,94105.00
2024-01-16T00:02:25.745Z,94109.00
2024-01-16T00:03:25.744Z,94108.00
2024-01-16T00:04:25.728Z,94105.00
2024-01-16T00:05:25.835Z,94104.00
2024-01-16T00:06:25.846Z,94109.00
2024-01-16T00:07:25.846Z,94109.00
2024-01-16T00:08:26.381Z,94111.00
2024-01-16T00:09:25.973Z,94115.00
2024-01-16T00:10:26.021Z,94116.00
2024-01-16T00:11:26.083Z,94118.00
2024-01-16T00:12:26.148Z,94117.00
2024-01-16T00:13:26.140Z,94112.00
2024-01-16T00:14:26.239Z,94110.00
2024-01-16T00:15:26.262Z,94107.00
2024-01-16T00:16:26.320Z,94110.00
2024-01-16T00:17:26.453Z,94113.00
2024-01-16T00:18:26.606Z,94113.00
2024-01-16T00:19:26.562Z,94111.00
2024-01-16T00:20:26.640Z,94113.00
2024-01-16T00:21:26.598Z,94113.00
2024-01-16T00:22:26.635Z,94116.00
2024-01-16T00:23:26.715Z,94120.00
2024-01-16T00:24:26.719Z,94124.00
2024-01-16T00:25:26.796Z,94128.00
2024-01-16T00:26:26.856Z,94125.00
2024-01-16T00:27:26.864Z,94124.00
2024-01-16T00:28:26.965Z,94117.00
2024-01-16T00:29:27.462Z,94118.00
2024-01-16T00:30:27.169Z,94118.00
2024-01-16T00:31:27.125Z,94119.00
2024-01-16T00:32:27.294Z,94123.00
2024-01-16T00:33:27.365Z,94125.00
2024-01-16T00:34:27.346Z,94128.00
2024-01-16T00:35:27.376Z,94130.00
2024-01-16T00:36:27.429Z,94131.00
2024-01-16T00:37:27.464Z,94131.00
2024-01-16T00:38:27.571Z,94133.00
2024-01-16T00:39:27.585Z,94131.00
2024-01-16T00:40:27.672Z,94130.00
2024-01-16T00:41:27.811Z,94133.00
2024-01-16T00:42:27.787Z,94132.00
2024-01-16T00:43:27.841Z,94134.00
2024-01-16T00:44:27.965Z,94136.00
2024-01-16T00:45:27.966Z,94136.00
2024-01-16T00:46:28.005Z,94138.00
2024-01-16T00:47:28.134Z,94142.00
2024-01-16T00:48:28.224Z,94144.00
2024-01-16T00:49:28.227Z,94141.00
2024-01-16T00:50:28.296Z,94138.00
2024-01-16T00:51:28.353Z,94136.00
2024-01-16T00:52:28.420Z,94132.00
2024-01-16T00:53:28.475Z,94135.00
2024-01-16T00:54:28.551Z,94135.00
2024-01-16T00:55:28.599Z,94138.00
2024-01-16T00:56:28.658Z,94140.00
2024-01-16T00:57:28.733Z,94141.00
2024-01-16T00:58:28.793Z,94146.00
2024-01-16T00:59:28.941Z,94152.00
2024-01-16T01:00:28.940Z,94154.00
2024-01-16T01:01:29.050Z,94156.00
2024-01-16T01:02:29.108Z,94155.00
2024-01-16T01:03:29.138Z,94161.00
2024-01-16T01:04:29.387Z,94160.00
2024-01-16T01:05:29.341Z,94160.00
2024-01-16T01:06:29.490Z,94161.00
2024-01-16T01:07:29.444Z,94160.00
2024-01-16T01:08:29.596Z,94159.00
2024-01-16T01:09:29.589Z,94157.00
2024-01-16T01:10:29.661Z,94159.00
2024-01-16T01:11:29.757Z,94163.00
2024-01-16T01:12:29.754Z,94167.00
2024-01-16T01:13:29.826Z,94173.00
2024-01-16T01:14:29.988Z,94175.00
2024-01-16T01:15:30.017Z,94175.00
2024-01-16T01:16:30.088Z,94174.00
2024-01-16T01:17:30.261Z,94176.00
2024-01-16T01:18:30.259Z,94175.00
2024-01-16T01:19:30.480Z,94174.00
2024-01-16T01:20:30.376Z,94175.00
2024-01-16T01:21:30.417Z,94177.00
2024-01-16T01:22:30.471Z,94178.00
2024-01-16T01:23:30.634Z,94178.00
2024-01-16T01:24:30.589Z,94178.00
2024-01-16T01:25:30.702Z,94177.00
2024-01-16T01:26:30.777Z,94176.00
2024-01-16T01:27:30.810Z,94178.00
2024-01-16T01:28:30.885Z,94178.00
2024-01-16T01:29:31.020Z,94179.00
2024-01-16T01:30:31.081Z,94180.00
2024-01-16T01:31:31.098Z,94180.00
2024-01-16T01:32:31.337Z,94180.00
2024-01-16T01:33:31.366Z,94178.00
2024-01-16T01:34:31.285Z,94178.00
2024-01-16T01:35:31.364Z,94180.00
2024-01-16T01:36:31.399Z,94180.00
2024-01-16T01:37:31.435Z,94180.00
2024-01-16T01:38:31.483Z,94181.00
2024-01-16T01:39:31.508Z,94182.00
2024-01-16T01:40:31.617Z,94186.00
2024-01-16T01:41:31.701Z,94188.00
2024-01-16T01:42:31.741Z,94184.00
2024-01-16T01:43:31.753Z,94184.00
2024-01-16T01:44:31.911Z,94183.00
2024-01-16T01:45:31.916Z,94183.00
2024-01-16T01:46:31.920Z,94185.00
2024-01-16T01:47:32.006Z,94187.00
2024-01-16T01:48:32.033Z,94189.00
2024-01-16T01:49:32.061Z,94191.00
2024-01-16T01:50:32.047Z,94196.00
2024-01-16T01:51:32.120Z,94199.00
2024-01-16T01:52:32.140Z,94200.00
2024-01-16T01:53:32.185Z,94200.00
2024-01-16T01:54:32.219Z,94199.00
2024-01-16T01:55:32.226Z,94200.00
2024-01-16T01:56:32.254Z,94200.00
2024-01-16T01:57:32.285Z,94203.00
2024-01-16T01:58:32.305Z,94207.00
2024-01-16T01:59:32.372Z,94208.00
2024-01-16T02:00:32.389Z,94210.00
2024-01-16T02:01:32.338Z,94208.00
2024-01-16T02:02:32.487Z,94209.00
2024-01-16T02:03:32.475Z,94209.00
2024-01-16T02:04:32.451Z,94211.00
2024-01-16T02:05:32.588Z,94214.00
2024-01-16T02:06:32.560Z,94215.00
2024-01-16T02:07:32.518Z,94217.00
2024-01-16T02:08:32.528Z,94219.00
2024-01-16T02:09:32.879Z,94219.00
2024-01-16T02:10:32.569Z,94218.00
2024-01-16T02:11:32.670Z,94219.00
2024-01-16T02:12:32.613Z,94222.00
2024-01-16T02:13:32.600Z,94223.00
2024-01-16T02:14:32.677Z,94223.00
2024-01-16T02:15:32.608Z,94223.00
2024-01-16T02:16:32.618Z,94222.00
2024-01-16T02:17:32.725Z,94222.00
2024-01-16T02:18:32.693Z,94222.00
2024-01-16T02:19:32.751Z,94222.00
2024-01-16T02:20:32.790Z,94225.00
2024-01-16T02:21:32.754Z,94226.00
2024-01-16T02:22:32.712Z,94227.00
2024-01-16T02:23:32.852Z,94224.00
2024-01-16T02:24:32.741Z,94228.00
2024-01-16T02:25:32.774Z,94229.00
2024-01-16T02:26:32.788Z,94229.00
2024-01-16T02:27:32.768Z,94230.00
2024-01-16T02:28:32.773Z,94232.00
2024-01-16T02:29:32.888Z,94229.00
2024-01-16T02:30:32.845Z,94226.00
2024-01-16T02:31:32.812Z,94226.00
2024-01-16T02:32:32.837Z,94228.00
2024-01-16T02:33:32.836Z,94231.00
2024-01-16T02:34:32.949Z,94233.00
2024-01-16T02:35:32.894Z,94232.00
2024-01-16T02:36:32.805Z,94234.00
2024-01-16T02:37:32.802Z,94235.00
2024-01-16T02:38:32.811Z,94234.00
2024-01-16T02:39:32.821Z,94233.00
2024-01-16T02:40:32.842Z,94234.00
2024-01-16T02:41:32.853Z,94231.00
2024-01-16T02:42:32.887Z,94231.00
2024-01-16T02:43:32.852Z,94233.00
2024-01-16T02:44:32.953Z,94232.00
2024-01-16T02:45:32.868Z,94233.00
2024-01-16T02:46:32.852Z,94234.00
2024-01-16T02:47:32.949Z,94234.00
2024-01-16T02:48:32.936Z,94237.00
2024-01-16T02:49:32.959Z,94241.00
2024-01-16T02:50:32.906Z,94240.00
2024-01-16T02:51:32.919Z,94241.00
2024-01-16T02:52:32.933Z,94241.00
2024-01-16T02:53:33.020Z,94239.00
2024-01-16T02:54:32.989Z,94238.00
2024-01-16T02:55:33.903Z,94238.00
2024-01-16T02:56:32.994Z,94241.00
2024-01-16T02:57:32.981Z,94241.00
2024-01-16T02:58:32.988Z,94242.00
2024-01-16T02:59:33.459Z,94242.00
2024-01-16T03:00:32.994Z,94243.00
2024-01-16T03:01:33.004Z,94247.00
2024-01-16T03:02:33.058Z,94250.00
2024-01-16T03:03:33.033Z,94253.00
2024-01-16T03:04:33.068Z,94253.00
2024-01-16T03:05:33.134Z,94253.00
2024-01-16T03:06:33.234Z,94257.00
2024-01-16T03:07:33.088Z,94259.00
2024-01-16T03:08:33.115Z,94262.00
2024-01-16T03:09:33.103Z,94262.00
2024-01-16T03:10:33.114Z,94263.00
2024-01-16T03:11:33.753Z,94265.00
2024-01-16T03:12:33.111Z,94263.00
2024-01-16T03:13:33.151Z,94263.00
2024-01-16T03:14:33.202Z,94265.00
2024-01-16T03:15:33.186Z,94267.00
2024-01-16T03:16:33.180Z,94264.00
2024-01-16T03:17:33.277Z,94263.00
2024-01-16T03:18:33.288Z,94263.00
2024-01-16T03:19:33.253Z,94261.00
2024-01-16T03:20:33.252Z,94262.00
2024-01-16T03:21:33.247Z,94262.00
2024-01-16T03:22:33.910Z,94260.00
2024-01-16T03:23:33.334Z,94262.00
2024-01-16T03:24:33.293Z,94265.00
2024-01-16T03:25:33.287Z,94265.00
2024-01-16T03:26:33.417Z,94267.00
2024-01-16T03:27:33.324Z,94269.00
2024-01-16T03:28:33.335Z,94268.00
2024-01-16T03:29:33.557Z,94273.00
2024-01-16T03:30:33.479Z,94269.00
2024-01-16T03:31:33.440Z,94269.00
2024-01-16T03:32:33.533Z,94269.00
2024-01-16T03:33:33.540Z,94266.00
2024-01-16T03:34:33.529Z,94266.00
2024-01-16T03:35:33.527Z,94262.00
2024-01-16T03:36:33.496Z,94262.00
2024-01-16T03:37:33.518Z,94260.00
2024-01-16T03:38:33.619Z,94260.00
2024-01-16T03:39:33.545Z,94262.00
2024-01-16T03:40:33.590Z,94265.00
2024-01-16T03:41:33.616Z,94265.00
2024-01-16T03:42:33.628Z,94263.00
2024-01-16T03:43:33.626Z,94265.00
2024-01-16T03:44:33.810Z,94264.00
2024-01-16T03:45:33.687Z,94263.00
2024-01-16T03:46:33.664Z,94264.00
2024-01-16T03:47:33.753Z,94263.00
2024-01-16T03:48:33.830Z,94265.00
2024-01-16T03:49:34.012Z,94263.00
2024-01-16T03:50:33.851Z,94267.00
2024-01-16T03:51:33.825Z,94266.00
2024-01-16T03:52:33.832Z,94269.00
2024-01-16T03:53:33.952Z,94269.00
2024-01-16T03:54:33.870Z,94270.00
2024-01-16T03:55:34.056Z,94269.00
2024-01-16T03:56:33.986Z,94270.00
2024-01-16T03:57:33.942Z,94269.00
2024-01-16T03:58:33.947Z,94271.00
2024-01-16T03:59:34.053Z,94270.00
2024-01-16T04:00:33.981Z,94270.00
2024-01-16T04:01:34.027Z,94269.00
2024-01-16T04:02:34.144Z,94270.00
2024-01-16T04:03:34.105Z,94269.00
2024-01-16T04:04:34.046Z,94272.00
2024-01-16T04:05:34.258Z,94274.00
2024-01-16T04:06:34.188Z,94273.00
2024-01-16T04:07:34.106Z,94272.00
2024-01-16T04:08:34.221Z,94273.00
2024-01-16T04:09:34.451Z,94274.00
2024-01-16T04:10:34.243Z,94270.00
2024-01-16T04:11:34.328Z,94270.00
2024-01-16T04:12:34.292Z,94270.00
2024-01-16T04:13:34.286Z,94271.00
2024-01-16T04:14:34.372Z,94272.00
2024-01-16T04:15:34.371Z,94271.00
2024-01-16T04:16:34.380Z,94271.00
2024-01-16T04:17:34.470Z,94272.00
2024-01-16T04:18:34.550Z,94273.00
2024-01-16T04:19:34.513Z,94273.00
2024-01-16T04:20:34.482Z,94273.00
2024-01-16T04:21:34.518Z,94272.00
2024-01-16T04:22:34.544Z,94270.00
2024-01-16T04:23:34.720Z,94271.00
2024-01-16T04:24:34.597Z,94271.00
2024-01-16T04:25:34.636Z,94274.00
2024-01-16T04:26:34.674Z,94274.00
2024-01-16T04:27:34.703Z,94275.00
2024-01-16T04:28:34.722Z,94275.00
2024-01-16T04:29:34.757Z,94275.00
2024-01-16T04:30:34.833Z,94276.00
2024-01-16T04:31:34.838Z,94279.00
2024-01-16T04:32:34.935Z,94279.00
2024-01-16T04:33:35.064Z,94279.00
2024-01-16T04:34:34.985Z,94280.00
2024-01-16T04:35:42.296Z,94283.00
2024-01-16T04:36:42.205Z,94283.00
2024-01-16T04:37:42.207Z,94283.00
2024-01-16T04:38:42.344Z,94281.00
2024-01-16T04:39:42.213Z,94281.00
2024-01-16T04:40:42.230Z,94281.00
2024-01-16T04:41:42.290Z,94283.00
2024-01-16T04:42:42.268Z,94283.00
2024-01-16T04:43:42.260Z,94284.00
2024-01-16T04:44:42.328Z,94286.00
2024-01-16T04:45:42.243Z,94291.00
2024-01-16T04:46:42.233Z,94293.00
2024-01-16T04:47:42.406Z,94293.00
2024-01-16T04:48:42.270Z,94295.00
2024-01-16T04:49:42.312Z,94297.00
2024-01-16T04:50:42.299Z,94298.00
2024-01-16T04:51:42.224Z,94299.00
2024-01-16T04:52:42.281Z,94301.00
2024-01-16T04:53:42.312Z,94300.00
2024-01-16T04:54:42.371Z,94304.00
2024-01-16T04:55:42.261Z,94307.00
2024-01-16T04:56:42.275Z,94310.00
2024-01-16T04:57:42.251Z,94313.00
2024-01-16T04:58:42.259Z,94312.00
2024-01-16T04:59:42.299Z,94314.00
2024-01-16T05:00:42.254Z,94315.00
2024-01-16T05:01:42.269Z,94312.00
2024-01-16T05:02:42.306Z,94309.00
2024-01-16T05:03:42.379Z,94308.00
2024-01-16T05:04:42.359Z,94311.00
2024-01-16T05:05:42.359Z,94310.00
2024-01-16T05:06:42.408Z,94313.00
2024-01-16T05:07:42.339Z,94314.00
2024-01-16T05:08:42.427Z,94314.00
2024-01-16T05:09:42.317Z,94313.00
2024-01-16T05:10:44.892Z,94316.00
2024-01-16T05:11:42.368Z,94316.00
2024-01-16T05:12:42.280Z,94316.00
2024-01-16T05:13:42.293Z,94315.00
2024-01-16T05:14:42.423Z,94316.00
2024-01-16T05:15:42.325Z,94317.00
2024-01-16T05:16:42.285Z,94316.00
2024-01-16T05:17:42.529Z,94316.00
2024-01-16T05:18:42.359Z,94316.00
2024-01-16T05:19:42.318Z,94314.00
2024-01-16T05:20:42.343Z,94315.00
2024-01-16T05:21:42.316Z,94313.00
2024-01-16T05:22:42.334Z,94313.00
2024-01-16T05:23:42.351Z,94314.00
2024-01-16T05:24:42.370Z,94315.00
2024-01-16T05:25:42.353Z,94317.00
2024-01-16T05:26:42.350Z,94320.00
2024-01-16T05:27:42.320Z,94321.00
2024-01-16T05:28:42.330Z,94323.00
2024-01-16T05:29:44.526Z,94325.00
2024-01-16T05:30:42.592Z,94325.00
2024-01-16T05:31:42.669Z,94324.00
2024-01-16T05:32:42.918Z,94325.00
2024-01-16T05:33:42.678Z,94326.00
2024-01-16T05:34:42.672Z,94328.00
2024-01-16T05:35:42.746Z,94330.00
2024-01-16T05:36:42.739Z,94329.00
2024-01-16T05:37:42.762Z,94328.00
2024-01-16T05:38:42.892Z,94325.00
2024-01-16T05:39:42.869Z,94327.00
2024-01-16T05:40:42.901Z,94328.00
2024-01-16T05:41:43.019Z,94331.00
2024-01-16T05:42:42.995Z,94332.00
2024-01-16T05:43:43.045Z,94329.00
2024-01-16T05:44:43.501Z,94329.00
2024-01-16T05:45:43.135Z,94327.00
2024-01-16T05:46:43.209Z,94325.00
2024-01-16T05:47:43.290Z,94330.00
2024-01-16T05:48:43.377Z,94327.00
2024-01-16T05:49:43.499Z,94330.00
2024-01-16T05:50:43.444Z,94328.00
2024-01-16T05:51:43.444Z,94328.00
2024-01-16T05:52:45.532Z,94328.00
2024-01-16T05:53:43.541Z,94326.00
2024-01-16T05:54:43.527Z,94328.00
2024-01-16T05:55:43.481Z,94330.00
2024-01-16T05:56:43.518Z,94330.00
2024-01-16T05:57:43.473Z,94330.00
2024-01-16T05:58:43.517Z,94330.00
2024-01-16T05:59:43.506Z,94331.00
2024-01-16T06:00:43.544Z,94330.00
2024-01-16T06:01:43.469Z,94333.00
2024-01-16T06:02:43.527Z,94330.00
2024-01-16T06:03:43.567Z,94329.00
2024-01-16T06:04:43.505Z,94332.00
2024-01-16T06:05:43.574Z,94332.00
2024-01-16T06:06:43.551Z,94332.00
2024-01-16T06:07:43.506Z,94332.00
2024-01-16T06:08:43.571Z,94335.00
2024-01-16T06:09:43.577Z,94338.00
2024-01-16T06:10:43.509Z,94340.00
2024-01-16T06:11:43.738Z,94341.00
2024-01-16T06:12:43.502Z,94343.00
2024-01-16T06:13:43.512Z,94343.00
2024-01-16T06:14:43.562Z,94342.00
2024-01-16T06:15:43.494Z,94342.00
2024-01-16T06:16:43.545Z,94342.00
2024-01-16T06:17:43.688Z,94349.00
2024-01-16T06:18:43.611Z,94341.00
2024-01-16T06:19:43.946Z,94346.00
2024-01-16T06:20:43.510Z,94343.00
2024-01-16T06:21:43.501Z,94343.00
2024-01-16T06:22:43.530Z,94342.00
2024-01-16T06:23:43.581Z,94337.00
2024-01-16T06:24:43.565Z,94340.00
2024-01-16T06:25:43.537Z,94343.00
2024-01-16T06:26:43.584Z,94353.00
2024-01-16T06:27:43.515Z,94344.00
2024-01-16T06:28:43.530Z,94345.00
2024-01-16T06:29:43.951Z,94343.00
2024-01-16T06:30:43.626Z,94347.00
2024-01-16T06:31:43.508Z,94346.00
2024-01-16T06:32:43.711Z,94344.00
2024-01-16T06:33:43.618Z,94346.00
2024-01-16T06:34:43.556Z,94352.00
2024-01-16T06:35:43.573Z,94350.00
2024-01-16T06:36:43.545Z,94349.00
2024-01-16T06:37:43.505Z,94349.00
2024-01-16T06:38:43.570Z,94356.00
2024-01-16T06:39:43.516Z,94345.00
2024-01-16T06:40:43.537Z,94346.00
2024-01-16T06:41:43.537Z,94348.00
2024-01-16T06:42:43.509Z,94348.00
2024-01-16T06:43:43.548Z,94351.00
2024-01-16T06:44:43.595Z,94355.00
2024-01-16T06:45:43.570Z,94355.00
2024-01-16T06:46:43.576Z,94358.00
2024-01-16T06:47:43.761Z,94362.00
2024-01-16T06:48:43.917Z,94353.00
2024-01-16T06:49:43.924Z,94361.00
2024-01-16T06:50:43.875Z,94364.00
2024-01-16T06:51:43.926Z,94359.00
2024-01-16T06:52:43.980Z,94364.00
2024-01-16T06:53:44.086Z,94362.00
2024-01-16T06:54:44.082Z,94359.00
2024-01-16T06:55:44.100Z,94363.00
2024-01-16T06:56:44.113Z,94357.00
2024-01-16T06:57:44.172Z,94361.00
2024-01-16T06:58:44.196Z,94357.00
2024-01-16T06:59:44.279Z,94361.00
2024-01-16T07:00:44.380Z,94359.00
2024-01-16T07:01:44.229Z,94359.00
2024-01-16T07:02:44.273Z,94360.00
2024-01-16T07:03:44.272Z,94363.00
2024-01-16T07:04:44.480Z,94363.00
2024-01-16T07:05:44.475Z,94365.00
2024-01-16T07:06:44.413Z,94366.00
2024-01-16T07:07:44.456Z,94368.00
2024-01-16T07:08:44.583Z,94374.00
2024-01-16T07:09:44.474Z,94375.00
2024-01-16T07:10:44.489Z,94375.00
2024-01-16T07:11:44.582Z,94376.00
2024-01-16T07:12:44.542Z,94376.00
2024-01-16T07:13:44.531Z,94377.00
2024-01-16T07:14:44.661Z,94373.00
2024-01-16T07:15:44.627Z,94374.00
2024-01-16T07:16:44.675Z,94372.00
2024-01-16T07:17:44.796Z,94372.00
2024-01-16T07:18:48.051Z,94372.00
2024-01-16T07:19:44.797Z,94373.00
2024-01-16T07:20:44.837Z,94372.00
2024-01-16T07:21:45.375Z,94374.00
2024-01-16T07:22:44.724Z,94370.00
2024-01-16T07:23:44.801Z,94374.00
2024-01-16T07:24:44.746Z,94376.00
2024-01-16T07:25:44.718Z,94377.00
2024-01-16T07:26:44.776Z,94378.00
2024-01-16T07:27:44.738Z,94378.00
2024-01-16T07:28:44.770Z,94377.00
2024-01-16T07:29:44.775Z,94379.00
2024-01-16T07:30:44.811Z,94378.00
2024-01-16T07:31:44.732Z,94381.00
2024-01-16T07:32:44.900Z,94380.00
2024-01-16T07:33:44.890Z,94382.00
2024-01-16T07:34:44.894Z,94382.00
2024-01-16T07:35:44.801Z,94385.00
2024-01-16T07:36:44.776Z,94386.00
2024-01-16T07:37:44.772Z,94388.00
2024-01-16T07:38:44.841Z,94389.00
2024-01-16T07:39:44.780Z,94392.00
2024-01-16T07:40:44.764Z,94393.00
2024-01-16T07:41:44.776Z,94394.00
2024-01-16T07:42:44.813Z,94396.00
2024-01-16T07:43:47.536Z,94396.00
2024-01-16T07:44:44.906Z,94397.00
2024-01-16T07:45:44.751Z,94398.00
2024-01-16T07:46:44.756Z,94396.00
2024-01-16T07:47:44.967Z,94396.00
2024-01-16T07:48:44.947Z,94398.00
2024-01-16T07:49:44.860Z,94402.00
2024-01-16T07:50:44.828Z,94402.00
2024-01-16T07:51:44.821Z,94403.00
2024-01-16T07:52:44.781Z,94406.00
2024-01-16T07:53:44.822Z,94400.00
2024-01-16T07:54:44.842Z,94399.00
2024-01-16T07:55:44.820Z,94404.00
2024-01-16T07:56:44.936Z,94399.00
2024-01-16T07:57:44.820Z,94402.00
2024-01-16T07:58:44.799Z,94405.00
2024-01-16T07:59:44.837Z,94407.00
2024-01-16T08:00:44.822Z,94406.00
2024-01-16T08:01:44.759Z,94408.00
2024-01-16T08:02:44.860Z,94408.00
2024-01-16T08:03:44.862Z,94408.00
2024-01-16T08:04:44.816Z,94407.00
2024-01-16T08:05:44.886Z,94407.00
2024-01-16T08:06:44.853Z,94409.00
2024-01-16T08:07:44.844Z,94408.00
2024-01-16T08:08:44.810Z,94407.00
2024-01-16T08:09:44.857Z,94404.00
2024-01-16T08:10:44.826Z,94401.00
2024-01-16T08:11:44.845Z,94402.00
2024-01-16T08:12:44.809Z,94400.00
2024-01-16T08:13:44.803Z,94401.00
2024-01-16T08:14:44.918Z,94401.00
2024-01-16T08:15:44.878Z,94401.00
2024-01-16T08:16:44.940Z,94398.00
2024-01-16T08:17:45.206Z,94397.00
2024-01-16T08:18:45.241Z,94397.00
2024-01-16T08:19:45.145Z,94394.00
2024-01-16T08:20:45.391Z,94392.00
2024-01-16T08:21:45.272Z,94389.00
2024-01-16T08:22:45.383Z,94389.00
2024-01-16T08:23:45.445Z,94387.00
2024-01-16T08:24:45.889Z,94388.00
2024-01-16T08:25:45.514Z,94388.00
2024-01-16T08:26:45.621Z,94387.00
2024-01-16T08:27:45.597Z,94388.00
2024-01-16T08:28:45.624Z,94387.00
2024-01-16T08:29:45.672Z,94386.00
2024-01-16T08:30:45.700Z,94383.00
2024-01-16T08:31:45.707Z,94382.00
2024-01-16T08:32:45.837Z,94380.00
2024-01-16T08:33:47.403Z,94380.00
2024-01-16T08:34:48.229Z,94379.00
2024-01-16T08:35:46.016Z,94379.00
2024-01-16T08:36:46.009Z,94378.00
2024-01-16T08:37:46.070Z,94381.00
2024-01-16T08:38:46.131Z,94377.00
2024-01-16T08:39:46.433Z,94375.00
2024-01-16T08:40:46.032Z,94376.00
2024-01-16T08:41:46.154Z,94373.00
2024-01-16T08:42:46.091Z,94372.00
2024-01-16T08:43:46.179Z,94373.00
2024-01-16T08:44:46.489Z,94368.00
2024-01-16T08:45:46.318Z,94369.00
2024-01-16T08:46:46.391Z,94367.00
2024-01-16T08:47:46.737Z,94369.00
2024-01-16T08:48:46.811Z,94378.00
2024-01-16T08:49:47.030Z,94377.00
2024-01-16T08:50:46.734Z,94378.00
2024-01-16T08:51:46.705Z,94377.00
2024-01-16T08:52:46.715Z,94377.00
2024-01-16T08:53:46.774Z,94370.00
2024-01-16T08:54:46.763Z,94371.00
2024-01-16T08:55:46.833Z,94374.00
2024-01-16T08:56:46.879Z,94376.00
2024-01-16T08:57:46.872Z,94378.00
2024-01-16T08:58:46.873Z,94378.00
2024-01-16T08:59:46.975Z,94380.00
2024-01-16T09:00:46.970Z,94375.00
2024-01-16T09:01:47.050Z,94377.00
2024-01-16T09:02:47.139Z,94379.00
2024-01-16T09:03:47.052Z,94375.00
2024-01-16T09:04:47.527Z,94374.00
2024-01-16T09:05:47.315Z,94372.00
2024-01-16T09:06:47.572Z,94373.00
2024-01-16T09:07:48.233Z,94373.00
2024-01-16T09:08:47.339Z,94373.00
2024-01-16T09:09:47.471Z,94371.00
2024-01-16T09:10:47.255Z,94371.00
2024-01-16T09:11:47.338Z,94367.00
2024-01-16T09:12:47.272Z,94366.00
2024-01-16T09:13:47.263Z,94367.00
2024-01-16T09:14:47.462Z,94365.00
2024-01-16T09:15:47.285Z,94361.00
2024-01-16T09:16:47.253Z,94360.00
2024-01-16T09:17:47.403Z,94357.00
2024-01-16T09:18:47.373Z,94354.00
2024-01-16T09:19:47.265Z,94352.00
2024-01-16T09:20:47.292Z,94350.00
2024-01-16T09:21:47.261Z,94349.00
2024-01-16T09:22:47.333Z,94348.00
2024-01-16T09:23:47.390Z,94349.00
2024-01-16T09:24:47.953Z,94350.00
2024-01-16T09:25:48.827Z,94352.00
2024-01-16T09:26:47.650Z,94351.00
2024-01-16T09:27:47.637Z,94350.00
2024-01-16T09:28:47.694Z,94351.00
2024-01-16T09:29:47.808Z,94349.00
2024-01-16T09:30:47.883Z,94351.00
2024-01-16T09:31:47.899Z,94348.00
2024-01-16T09:32:48.015Z,94350.00
2024-01-16T09:33:48.049Z,94351.00
2024-01-16T09:34:48.093Z,94351.00
2024-01-16T09:35:48.120Z,94350.00
2024-01-16T09:36:48.104Z,94350.00
2024-01-16T09:37:48.206Z,94350.00
2024-01-16T09:38:48.356Z,94349.00
2024-01-16T09:39:48.495Z,94348.00
2024-01-16T09:40:48.331Z,94346.00
2024-01-16T09:41:49.060Z,94348.00
2024-01-16T09:42:48.444Z,94352.00
2024-01-16T09:43:48.552Z,94353.00
2024-01-16T09:44:48.998Z,94351.00
2024-01-16T09:45:48.660Z,94350.00
2024-01-16T09:46:48.720Z,94346.00
2024-01-16T09:47:50.637Z,94345.00
2024-01-16T09:48:48.927Z,94345.00
2024-01-16T09:49:49.065Z,94343.00
2024-01-16T09:50:48.889Z,94339.00
2024-01-16T09:51:48.899Z,94336.00
2024-01-16T09:52:48.921Z,94336.00
2024-01-16T09:53:49.039Z,94333.00
2024-01-16T09:54:49.454Z,94336.00
2024-01-16T09:55:49.000Z,94331.00
2024-01-16T09:56:49.043Z,94326.00
2024-01-16T09:57:49.013Z,94319.00
2024-01-16T09:58:49.066Z,94318.00
2024-01-16T09:59:49.564Z,94316.00
2024-01-16T10:00:49.184Z,94312.00
2024-01-16T10:01:49.248Z,94314.00
2024-01-16T10:02:49.350Z,94309.00
2024-01-16T10:03:51.013Z,94308.00
2024-01-16T10:04:49.392Z,94307.00
2024-01-16T10:05:49.381Z,94305.00
2024-01-16T10:06:49.470Z,94306.00
2024-01-16T10:07:49.412Z,94306.00
2024-01-16T10:08:49.385Z,94303.00
2024-01-16T10:09:49.443Z,94303.00
2024-01-16T10:10:50.359Z,94301.00
2024-01-16T10:11:49.531Z,94295.00
2024-01-16T10:12:49.488Z,94297.00
2024-01-16T10:13:49.497Z,94295.00
2024-01-16T10:14:50.050Z,94299.00
2024-01-16T10:15:49.643Z,94296.00
2024-01-16T10:16:49.656Z,94295.00
2024-01-16T10:17:49.828Z,94295.00
2024-01-16T10:18:49.894Z,94291.00
2024-01-16T10:19:50.550Z,94291.00
2024-01-16T10:20:49.892Z,94287.00
2024-01-16T10:21:49.839Z,94287.00
2024-01-16T10:22:49.845Z,94288.00
2024-01-16T10:23:49.960Z,94286.00
2024-01-16T10:24:50.442Z,94284.00
2024-01-16T10:25:49.992Z,94280.00
2024-01-16T10:26:50.099Z,94276.00
2024-01-16T10:27:50.094Z,94280.00
2024-01-16T10:28:50.110Z,94281.00
2024-01-16T10:29:50.962Z,94278.00
2024-01-16T10:30:50.285Z,94280.00
2024-01-16T10:31:50.256Z,94277.00
2024-01-16T10:32:50.371Z,94269.00
2024-01-16T10:33:50.438Z,94270.00
2024-01-16T10:34:50.510Z,94270.00
2024-01-16T10:35:50.485Z,94272.00
2024-01-16T10:36:50.471Z,94271.00
2024-01-16T10:37:51.518Z,94268.00
2024-01-16T10:38:50.601Z,94266.00
2024-01-16T10:39:50.950Z,94264.00
2024-01-16T10:40:50.647Z,94265.00
2024-01-16T10:41:50.712Z,94266.00
2024-01-16T10:42:50.773Z,94262.00
2024-01-16T10:43:50.771Z,94262.00
2024-01-16T10:44:51.057Z,94261.00
2024-01-16T10:45:50.902Z,94263.00
2024-01-16T10:46:51.248Z,94264.00
2024-01-16T10:47:51.057Z,94270.00
2024-01-16T10:48:51.080Z,94266.00
2024-01-16T10:49:51.562Z,94271.00
2024-01-16T10:50:51.134Z,94257.00
2024-01-16T10:51:51.200Z,94260.00
2024-01-16T10:52:51.136Z,94253.00
2024-01-16T10:53:51.189Z,94253.00
2024-01-16T10:54:51.500Z,94251.00
2024-01-16T10:55:51.276Z,94252.00
2024-01-16T10:56:51.405Z,94251.00
2024-01-16T10:57:51.336Z,94251.00
2024-01-16T10:58:51.344Z,94249.00
2024-01-16T10:59:51.537Z,94250.00
2024-01-16T11:00:51.483Z,94248.00
2024-01-16T11:01:51.560Z,94249.00
2024-01-16T11:02:51.756Z,94244.00
2024-01-16T11:03:51.765Z,94239.00
2024-01-16T11:04:52.002Z,94242.00
2024-01-16T11:05:51.783Z,94242.00
2024-01-16T11:06:51.729Z,94239.00
2024-01-16T11:07:51.767Z,94238.00
2024-01-16T11:08:51.732Z,94236.00
2024-01-16T11:09:51.723Z,94235.00
2024-01-16T11:10:51.725Z,94233.00
2024-01-16T11:11:51.809Z,94227.00
2024-01-16T11:12:51.897Z,94226.00
2024-01-16T11:13:51.874Z,94227.00
2024-01-16T11:14:52.035Z,94225.00
2024-01-16T11:15:52.034Z,94223.00
2024-01-16T11:16:52.083Z,94220.00
2024-01-16T11:17:52.261Z,94219.00
2024-01-16T11:18:52.248Z,94217.00
2024-01-16T11:21:04.193Z,94215.00
2024-01-16T11:21:53.350Z,94214.00
2024-01-16T11:22:52.448Z,94212.00
2024-01-16T11:23:52.354Z,94209.00
2024-01-16T11:24:52.518Z,94208.00
2024-01-16T11:25:52.305Z,94208.00
2024-01-16T11:26:52.335Z,94207.00
2024-01-16T11:27:52.430Z,94202.00
2024-01-16T11:28:52.320Z,94202.00
2024-01-16T11:29:52.374Z,94202.00
2024-01-16T11:30:52.355Z,94201.00
2024-01-16T11:31:56.495Z,94199.00
2024-01-16T11:32:53.413Z,94196.00
2024-01-16T11:33:52.523Z,94194.00
2024-01-16T11:34:52.556Z,94193.00
2024-01-16T11:35:52.366Z,94190.00
2024-01-16T11:36:52.294Z,94189.00
2024-01-16T11:37:52.301Z,94183.00
2024-01-16T11:38:52.422Z,94181.00
2024-01-16T11:39:52.500Z,94179.00
2024-01-16T11:40:52.309Z,94175.00
2024-01-16T11:41:52.427Z,94176.00
2024-01-16T11:42:52.316Z,94171.00
2024-01-16T11:43:52.467Z,94168.00
2024-01-16T11:44:52.471Z,94168.00
2024-01-16T11:45:52.374Z,94161.00